createdAt,value
2023-02-19T00:00:31.323Z,89
2023-02-19T00:01:24.300Z,89
2023-02-19T00:02:25.702Z,90
2023-02-19T00:03:45.634Z,90
2023-02-19T00:04:20.620Z,90
2023-02-19T00:05:39.422Z,90
2023-02-19T00:06:43.334Z,89
2023-02-19T00:07:40.990Z,89
2023-02-19T00:08:36.153Z,89
2023-02-19T00:09:29.163Z,89
2023-02-19T00:10:21.575Z,89
2023-02-19T00:11:34.927Z,89
2023-02-19T00:12:21.356Z,89
2023-02-19T00:13:45.986Z,89
2023-02-19T00:14:37.985Z,90
2023-02-19T00:15:29.245Z,90
2023-02-19T00:16:24.144Z,90
2023-02-19T00:17:24.623Z,90
2023-02-19T00:18:36.047Z,90
2023-02-19T00:19:22.933Z,89
2023-02-19T00:20:49.485Z,89
2023-02-19T00:21:24.230Z,89
2023-02-19T00:22:37.332Z,89
2023-02-19T00:23:28.336Z,89
2023-02-19T00:24:20.466Z,88
2023-02-19T00:25:21.449Z,88
2023-02-19T00:26:26.021Z,88
2023-02-19T00:27:27.470Z,88
2023-02-19T00:28:41.012Z,88
2023-02-19T00:29:35.883Z,89
2023-02-19T00:30:23.668Z,89
2023-02-19T00:31:24.776Z,89
2023-02-19T00:32:26.802Z,89
2023-02-19T00:33:31.690Z,89
2023-02-19T00:34:46.489Z,89
2023-02-19T00:35:51.421Z,89
2023-02-19T00:36:38.218Z,89
2023-02-19T00:37:23.950Z,89
2023-02-19T00:38:25.556Z,89
2023-02-19T00:39:20.734Z,89
2023-02-19T00:40:23.163Z,88
2023-02-19T00:42:00.960Z,88
2023-02-19T00:42:54.901Z,88
2023-02-19T00:43:42.286Z,88
2023-02-19T00:44:29.837Z,88
2023-02-19T00:45:31.721Z,89
2023-02-19T00:46:24.559Z,89
2023-02-19T00:47:27.491Z,89
2023-02-19T00:48:22.566Z,89
2023-02-19T00:49:21.344Z,89
2023-02-19T00:50:35.387Z,88
2023-02-19T00:51:31.272Z,88
2023-02-19T00:52:35.115Z,87
2023-02-19T00:53:28.868Z,88
2023-02-19T00:54:21.665Z,88
2023-02-19T00:55:26.017Z,88
2023-02-19T00:56:42.076Z,88
2023-02-19T00:57:48.547Z,88
2023-02-19T00:58:33.738Z,87
2023-02-19T00:59:19.850Z,87
2023-02-19T01:00:33.314Z,87
2023-02-19T01:01:27.644Z,87
2023-02-19T01:02:28.803Z,87
2023-02-19T01:03:21.737Z,87
2023-02-19T01:04:50.837Z,87
2023-02-19T01:05:37.299Z,87
2023-02-19T01:06:24.936Z,87
2023-02-19T01:07:38.172Z,87
2023-02-19T01:08:31.093Z,87
2023-02-19T01:09:23.952Z,87
2023-02-19T01:10:25.719Z,87
2023-02-19T01:11:53.823Z,87
2023-02-19T01:12:29.980Z,88
2023-02-19T01:13:26.669Z,88
2023-02-19T01:14:40.802Z,87
2023-02-19T01:15:34.496Z,87
2023-02-19T01:16:26.568Z,87
2023-02-19T01:17:22.468Z,87
2023-02-19T01:18:22.575Z,87
2023-02-19T01:19:43.263Z,87
2023-02-19T01:20:30.761Z,87
2023-02-19T01:21:46.096Z,87
2023-02-19T01:22:39.220Z,87
2023-02-19T01:23:25.969Z,87
2023-02-19T01:24:26.519Z,87
2023-02-19T01:25:26.896Z,87
2023-02-19T01:26:20.427Z,87
2023-02-19T01:27:34.290Z,87
2023-02-19T01:28:49.562Z,87
2023-02-19T01:29:31.857Z,87
2023-02-19T01:30:36.459Z,87
2023-02-19T01:31:29.572Z,88
2023-02-19T01:32:20.792Z,88
2023-02-19T01:33:24.728Z,87
2023-02-19T01:34:23.158Z,87
2023-02-19T01:35:22.103Z,87
2023-02-19T01:36:49.124Z,87
2023-02-19T01:37:39.969Z,87
2023-02-19T01:38:32.901Z,87
2023-02-19T01:40:28.759Z,87
2023-02-19T01:41:40.664Z,87
2023-02-19T01:42:25.183Z,87
2023-02-19T01:43:50.536Z,87
2023-02-19T01:44:43.476Z,87
2023-02-19T01:45:35.325Z,87
2023-02-19T01:46:21.789Z,86
2023-02-19T01:47:21.354Z,86
2023-02-19T01:48:27.936Z,86
2023-02-19T01:49:29.292Z,87
2023-02-19T01:50:55.797Z,87
2023-02-19T01:51:23.557Z,87
2023-02-19T01:52:41.025Z,87
2023-02-19T01:53:25.553Z,87
2023-02-19T01:54:25.412Z,86
2023-02-19T01:55:32.443Z,86
2023-02-19T01:56:22.926Z,86
2023-02-19T01:57:29.707Z,86
2023-02-19T01:58:43.547Z,86
2023-02-19T01:59:40.473Z,86
2023-02-19T02:00:28.913Z,86
2023-02-19T02:01:33.790Z,86
2023-02-19T02:02:32.283Z,86
2023-02-19T02:20:37.269Z,86
2023-02-19T02:21:34.853Z,87
2023-02-19T02:22:23.091Z,87
2023-02-19T02:23:36.021Z,87
2023-02-19T02:24:27.264Z,86
2023-02-19T02:25:21.949Z,86
2023-02-19T02:26:26.357Z,86
2023-02-19T02:27:55.676Z,86
2023-02-19T02:28:39.967Z,86
2023-02-19T02:29:27.498Z,86
2023-02-19T02:30:19.659Z,86
2023-02-19T02:31:32.606Z,86
2023-02-19T02:32:25.437Z,86
2023-02-19T02:33:21.521Z,85
2023-02-19T02:34:23.328Z,85
2023-02-19T02:35:42.286Z,86
2023-02-19T02:36:26.871Z,86
2023-02-19T02:37:39.052Z,86
2023-02-19T02:38:36.981Z,86
2023-02-19T02:39:30.010Z,86
2023-02-19T02:40:22.961Z,87
2023-02-19T02:41:27.606Z,87
2023-02-19T02:42:20.421Z,87
2023-02-19T02:43:32.725Z,86
2023-02-19T02:44:48.757Z,86
2023-02-19T02:45:41.586Z,86
2023-02-19T02:46:34.555Z,86
2023-02-19T02:47:24.256Z,85
2023-02-19T02:48:34.760Z,86
2023-02-19T02:49:24.568Z,86
2023-02-19T02:50:34.014Z,86
2023-02-19T02:51:21.520Z,86
2023-02-19T02:52:45.232Z,86
2023-02-19T02:53:28.984Z,86
2023-02-19T02:54:30.784Z,86
2023-02-19T02:55:24.167Z,86
2023-02-19T02:56:30.778Z,86
2023-02-19T02:57:22.272Z,86
2023-02-19T02:58:24.305Z,86
2023-02-19T02:59:48.753Z,86
2023-02-19T03:00:41.677Z,85
2023-02-19T03:01:34.796Z,85
2023-02-19T03:02:26.475Z,85
2023-02-19T03:03:33.292Z,85
2023-02-19T03:04:27.539Z,86
2023-02-19T03:05:27.165Z,86
2023-02-19T03:06:53.317Z,85
2023-02-19T03:07:46.521Z,85
2023-02-19T03:08:40.235Z,84
2023-02-19T03:09:23.662Z,84
2023-02-19T03:10:23.476Z,85
2023-02-19T03:11:32.167Z,85
2023-02-19T03:12:23.434Z,86
2023-02-19T03:13:56.911Z,86
2023-02-19T03:14:52.972Z,86
2023-02-19T03:15:20.633Z,86
2023-02-19T03:16:26.913Z,86
2023-02-19T03:17:27.525Z,86
2023-02-19T03:18:21.681Z,86
2023-02-19T03:19:27.656Z,86
2023-02-19T03:20:20.671Z,86
2023-02-19T03:21:25.617Z,86
2023-02-19T03:22:41.834Z,86
2023-02-19T03:23:29.413Z,86
2023-02-19T03:24:31.646Z,86
2023-02-19T03:25:26.400Z,86
2023-02-19T03:26:31.751Z,86
2023-02-19T03:27:24.746Z,86
2023-02-19T03:28:45.297Z,86
2023-02-19T03:29:46.086Z,86
2023-02-19T03:30:32.087Z,86
2023-02-19T03:31:35.545Z,86
2023-02-19T03:32:24.580Z,86
2023-02-19T03:33:23.407Z,86
2023-02-19T03:34:26.926Z,86
2023-02-19T03:35:23.721Z,86
2023-02-19T03:36:48.684Z,86
2023-02-19T03:37:35.584Z,85
2023-02-19T03:38:22.661Z,85
2023-02-19T03:39:34.280Z,85
2023-02-19T03:40:26.417Z,85
2023-02-19T03:41:31.256Z,86
2023-02-19T03:42:26.522Z,86
2023-02-19T03:43:19.389Z,86
2023-02-19T03:44:34.112Z,85
2023-02-19T03:45:24.168Z,86
2023-02-19T03:46:38.104Z,86
2023-02-19T03:47:31.372Z,85
2023-02-19T03:48:22.398Z,85
2023-02-19T03:49:24.760Z,85
2023-02-19T03:50:23.728Z,85
2023-02-19T03:51:51.749Z,85
2023-02-19T03:52:28.971Z,85
2023-02-19T03:53:42.529Z,86
2023-02-19T03:54:33.657Z,86
2023-02-19T03:55:27.549Z,85
2023-02-19T03:56:34.760Z,85
2023-02-19T03:57:27.886Z,86
2023-02-19T03:58:20.663Z,86
2023-02-19T03:59:29.820Z,86
2023-02-19T04:00:24.056Z,86
2023-02-19T04:01:43.404Z,86
2023-02-19T04:02:32.134Z,86
2023-02-19T04:03:26.573Z,85
2023-02-19T04:04:35.221Z,85
2023-02-19T04:05:30.441Z,84
2023-02-19T04:06:28.996Z,84
2023-02-19T04:07:42.958Z,83
2023-02-19T04:08:43.305Z,83
2023-02-19T04:09:39.822Z,83
2023-02-19T04:10:29.871Z,84
2023-02-19T04:11:23.892Z,85
2023-02-19T04:12:35.612Z,85
2023-02-19T04:13:26.377Z,84
2023-02-19T04:14:23.510Z,84
2023-02-19T04:15:51.846Z,83
2023-02-19T04:16:41.559Z,83
2023-02-19T04:17:27.113Z,84
2023-02-19T04:18:27.354Z,84
2023-02-19T04:19:33.949Z,84
2023-02-19T04:20:28.554Z,84
2023-02-19T04:21:23.081Z,84
2023-02-19T04:23:02.800Z,84
2023-02-19T04:23:53.764Z,84
2023-02-19T04:24:43.268Z,85
2023-02-19T04:25:23.944Z,85
2023-02-19T04:26:21.862Z,85
2023-02-19T04:27:33.291Z,85
2023-02-19T04:28:22.064Z,85
2023-02-19T04:29:38.828Z,85
2023-02-19T04:30:49.277Z,85
2023-02-19T04:31:44.235Z,85
2023-02-19T04:32:30.507Z,85
2023-02-19T04:33:25.985Z,85
2023-02-19T04:34:30.281Z,85
2023-02-19T04:35:35.327Z,85
2023-02-19T04:36:24.971Z,85
2023-02-19T04:37:58.604Z,85
2023-02-19T04:38:43.320Z,85
2023-02-19T04:39:31.698Z,85
2023-02-19T04:40:38.867Z,85
2023-02-19T04:41:26.003Z,84
2023-02-19T04:42:40.544Z,84
2023-02-19T04:43:27.294Z,83
2023-02-19T04:45:00.017Z,83
2023-02-19T04:45:24.587Z,83
2023-02-19T04:46:33.639Z,83
2023-02-19T04:47:35.788Z,84
2023-02-19T04:48:28.091Z,83
2023-02-19T04:49:39.271Z,84
2023-02-19T04:50:25.708Z,84
2023-02-19T04:51:22.563Z,84
2023-02-19T04:52:41.776Z,84
2023-02-19T04:53:34.778Z,85
2023-02-19T04:54:22.069Z,85
2023-02-19T04:55:32.403Z,85
2023-02-19T04:56:20.627Z,84
2023-02-19T04:57:28.518Z,85
2023-02-19T04:58:26.860Z,85
2023-02-19T04:59:21.324Z,84
2023-02-19T05:00:38.029Z,84
2023-02-19T05:01:23.402Z,84
2023-02-19T05:02:26.215Z,84
2023-02-19T05:03:29.318Z,84
2023-02-19T05:04:22.143Z,84
2023-02-19T05:05:30.794Z,84
2023-02-19T05:06:24.179Z,84
2023-02-19T05:07:40.960Z,85
2023-02-19T05:08:25.978Z,85
2023-02-19T05:09:39.156Z,85
2023-02-19T05:10:32.789Z,84
2023-02-19T05:11:26.775Z,85
2023-02-19T05:12:21.992Z,85
2023-02-19T05:13:21.664Z,85
2023-02-19T05:14:21.998Z,85
2023-02-19T05:15:28.921Z,85
2023-02-19T05:16:43.546Z,84
2023-02-19T05:17:36.472Z,85
2023-02-19T05:18:28.295Z,85
2023-02-19T05:19:28.307Z,85
2023-02-19T05:20:39.303Z,85
2023-02-19T05:21:25.572Z,85
2023-02-19T05:22:32.061Z,85
2023-02-19T05:23:48.114Z,84
2023-02-19T05:24:39.519Z,85
2023-02-19T05:25:34.003Z,85
2023-02-19T05:26:28.508Z,86
2023-02-19T05:27:37.473Z,85
2023-02-19T05:28:30.918Z,84
2023-02-19T05:29:22.711Z,83
2023-02-19T05:30:23.482Z,83
2023-02-19T05:31:37.892Z,85
2023-02-19T05:32:37.800Z,85
2023-02-19T05:33:30.124Z,84
2023-02-19T05:34:22.500Z,84
2023-02-19T05:35:33.838Z,84
2023-02-19T05:36:29.482Z,84
2023-02-19T05:37:19.694Z,84
2023-02-19T05:38:47.229Z,85
2023-02-19T05:39:41.911Z,85
2023-02-19T05:40:34.552Z,85
2023-02-19T05:41:22.335Z,85
2023-02-19T05:42:33.281Z,85
2023-02-19T05:43:31.093Z,85
2023-02-19T05:44:26.553Z,86
2023-02-19T05:45:53.161Z,86
2023-02-19T05:46:46.059Z,86
2023-02-19T05:47:26.979Z,86
2023-02-19T05:48:22.937Z,86
2023-02-19T05:49:23.148Z,86
2023-02-19T05:50:35.420Z,86
2023-02-19T05:51:31.089Z,86
2023-02-19T05:52:22.264Z,86
2023-02-19T05:53:32.691Z,86
2023-02-19T05:54:44.585Z,86
2023-02-19T05:55:27.877Z,86
2023-02-19T05:56:28.473Z,87
2023-02-19T05:57:20.281Z,87
2023-02-19T05:58:22.077Z,87
2023-02-19T05:59:21.311Z,87
2023-02-19T06:00:50.791Z,87
2023-02-19T06:01:43.778Z,87
2023-02-19T06:02:30.286Z,87
2023-02-19T06:03:32.663Z,87
2023-02-19T06:04:26.028Z,87
2023-02-19T06:05:38.014Z,87
2023-02-19T06:06:23.955Z,87
2023-02-19T06:07:22.608Z,87
2023-02-19T06:08:46.837Z,87
2023-02-19T06:09:32.197Z,87
2023-02-19T06:10:37.261Z,87
2023-02-19T06:11:28.546Z,87
2023-02-19T06:12:22.709Z,87
2023-02-19T06:13:35.647Z,87
2023-02-19T06:14:26.711Z,87
2023-02-19T06:15:20.306Z,87
2023-02-19T06:16:38.292Z,86
2023-02-19T06:17:23.280Z,86
2023-02-19T06:18:33.323Z,87
2023-02-19T06:19:26.052Z,87
2023-02-19T06:20:30.084Z,86
2023-02-19T06:21:31.474Z,86
2023-02-19T06:22:24.475Z,86
2023-02-19T06:23:38.481Z,86
2023-02-19T06:24:27.013Z,86
2023-02-19T06:25:38.743Z,86
2023-02-19T06:26:23.449Z,86
2023-02-19T06:27:23.828Z,86
2023-02-19T06:28:21.822Z,86
2023-02-19T06:29:29.292Z,86
2023-02-19T06:30:21.587Z,87
2023-02-19T06:31:28.385Z,86
2023-02-19T06:32:27.878Z,86
2023-02-19T06:33:34.497Z,85
2023-02-19T06:34:28.076Z,84
2023-02-19T06:35:24.492Z,85
2023-02-19T06:36:32.635Z,85
2023-02-19T06:37:26.298Z,86
2023-02-19T06:38:31.192Z,87
2023-02-19T06:39:45.493Z,87
2023-02-19T06:40:39.074Z,87
2023-02-19T06:41:31.961Z,85
2023-02-19T06:42:28.202Z,84
2023-02-19T06:43:24.188Z,83
2023-02-19T06:44:29.803Z,83
2023-02-19T06:45:24.380Z,83
2023-02-19T06:46:21.032Z,84
2023-02-19T06:47:42.727Z,85
2023-02-19T06:48:34.469Z,86
2023-02-19T06:49:30.645Z,86
2023-02-19T06:50:20.958Z,87
2023-02-19T06:51:33.970Z,87
2023-02-19T06:52:29.655Z,87
2023-02-19T06:53:20.433Z,87
2023-02-19T06:54:20.126Z,87
2023-02-19T06:55:35.901Z,86
2023-02-19T06:56:34.066Z,86
2023-02-19T06:57:24.872Z,86
2023-02-19T06:58:40.592Z,86
2023-02-19T06:59:31.489Z,86
2023-02-19T07:00:27.146Z,87
2023-02-19T07:01:39.793Z,86
2023-02-19T07:02:44.467Z,87
2023-02-19T07:04:02.842Z,87
2023-02-19T07:04:22.077Z,87
2023-02-19T07:05:21.287Z,87
2023-02-19T07:06:31.008Z,88
2023-02-19T07:07:31.001Z,88
2023-02-19T07:08:23.758Z,88
2023-02-19T07:09:49.210Z,88
2023-02-19T07:10:42.114Z,89
2023-02-19T07:11:26.283Z,89
2023-02-19T07:12:25.343Z,89
2023-02-19T07:13:41.293Z,89
2023-02-19T07:14:34.070Z,89
2023-02-19T07:15:19.942Z,88
2023-02-19T07:16:52.144Z,88
2023-02-19T07:17:29.365Z,87
2023-02-19T07:18:28.194Z,86
2023-02-19T07:19:29.885Z,86
2023-02-19T07:20:23.060Z,87
2023-02-19T07:21:37.130Z,87
2023-02-19T07:22:23.106Z,87
2023-02-19T07:23:23.399Z,87
2023-02-19T07:24:48.673Z,87
2023-02-19T07:25:33.341Z,87
2023-02-19T07:26:34.627Z,87
2023-02-19T07:27:26.097Z,87
2023-02-19T07:28:24.627Z,87
2023-02-19T07:29:26.226Z,86
2023-02-19T07:30:27.604Z,86
2023-02-19T07:31:22.406Z,86
2023-02-19T07:32:35.833Z,86
2023-02-19T07:34:30.204Z,86
2023-02-19T07:35:24.996Z,85
2023-02-19T07:36:29.893Z,85
2023-02-19T07:37:34.336Z,86
2023-02-19T07:38:24.729Z,86
2023-02-19T07:39:22.861Z,86
2023-02-19T07:40:24.192Z,85
2023-02-19T07:41:35.692Z,85
2023-02-19T07:42:28.658Z,85
2023-02-19T07:43:20.374Z,85
2023-02-19T07:44:35.774Z,85
2023-02-19T07:45:29.048Z,85
2023-02-19T07:46:22.372Z,84
2023-02-19T07:47:27.206Z,85
2023-02-19T07:48:40.290Z,85
2023-02-19T07:49:33.590Z,84
2023-02-19T07:50:24.403Z,85
2023-02-19T07:51:24.154Z,86
2023-02-19T07:52:32.835Z,86
2023-02-19T07:53:27.075Z,86
2023-02-19T07:54:32.351Z,86
2023-02-19T07:55:42.135Z,87
2023-02-19T07:56:23.039Z,87
2023-02-19T07:57:30.710Z,87
2023-02-19T07:58:22.840Z,87
2023-02-19T07:59:37.104Z,86
2023-02-19T08:00:32.243Z,85
2023-02-19T08:01:23.551Z,84
2023-02-19T08:02:20.030Z,85
2023-02-19T08:03:40.033Z,85
2023-02-19T08:04:33.475Z,85
2023-02-19T08:05:26.415Z,85
2023-02-19T08:06:44.243Z,84
2023-02-19T08:07:21.367Z,84
2023-02-19T08:08:27.647Z,84
2023-02-19T08:09:24.450Z,84
2023-02-19T08:10:45.234Z,85
2023-02-19T08:11:38.191Z,85
2023-02-19T08:12:31.479Z,85
2023-02-19T08:13:23.009Z,83
2023-02-19T08:14:40.068Z,83
2023-02-19T08:15:32.924Z,82
2023-02-19T08:16:42.065Z,83
2023-02-19T08:17:49.657Z,84
2023-02-19T08:18:40.443Z,84
2023-02-19T08:19:31.023Z,83
2023-02-19T08:20:22.629Z,82
2023-02-19T08:21:44.861Z,82
2023-02-19T08:22:37.638Z,82
2023-02-19T08:23:29.592Z,83
2023-02-19T08:24:22.304Z,83
2023-02-19T08:25:36.532Z,83
2023-02-19T08:26:37.665Z,83
2023-02-19T08:27:25.397Z,83
2023-02-19T08:28:23.802Z,82
2023-02-19T08:29:39.961Z,82
2023-02-19T08:30:28.112Z,82
2023-02-19T08:31:27.352Z,81
2023-02-19T08:32:48.192Z,81
2023-02-19T08:33:41.196Z,81
2023-02-19T08:34:27.334Z,81
2023-02-19T08:35:27.287Z,81
2023-02-19T08:36:20.274Z,81
2023-02-19T08:37:38.461Z,81
2023-02-19T08:38:23.924Z,81
2023-02-19T08:39:23.657Z,81
2023-02-19T08:40:46.805Z,81
2023-02-19T08:41:25.856Z,80
2023-02-19T08:42:32.117Z,80
2023-02-19T08:43:24.972Z,80
2023-02-19T08:44:39.721Z,80
2023-02-19T08:45:25.336Z,79
2023-02-19T08:46:27.667Z,79
2023-02-19T08:47:20.624Z,79
2023-02-19T08:48:34.549Z,79
2023-02-19T08:49:20.224Z,79
2023-02-19T08:50:56.443Z,79
2023-02-19T08:51:21.242Z,79
2023-02-19T08:52:21.051Z,79
2023-02-19T08:53:34.000Z,79
2023-02-19T08:54:24.943Z,79
2023-02-19T08:55:37.242Z,78
2023-02-19T08:56:39.576Z,78
2023-02-19T08:57:32.017Z,78
2023-02-19T08:58:25.996Z,78
2023-02-19T08:59:30.901Z,78
2023-02-19T09:00:36.075Z,78
2023-02-19T09:01:30.055Z,78
2023-02-19T09:02:41.208Z,78
2023-02-19T09:03:26.670Z,77
2023-02-19T09:04:31.484Z,77
2023-02-19T09:05:29.293Z,77
2023-02-19T09:06:23.824Z,77
2023-02-19T09:07:21.681Z,77
2023-02-19T09:08:56.748Z,77
2023-02-19T09:09:22.836Z,77
2023-02-19T09:10:30.605Z,77
2023-02-19T09:11:40.216Z,77
2023-02-19T09:12:34.536Z,77
2023-02-19T09:13:27.544Z,76
2023-02-19T09:14:25.047Z,76
2023-02-19T09:15:28.334Z,76
2023-02-19T09:16:32.805Z,76
2023-02-19T09:17:26.016Z,75
2023-02-19T09:18:47.055Z,76
2023-02-19T09:19:38.819Z,76
2023-02-19T09:20:31.935Z,75
2023-02-19T09:21:24.343Z,76
2023-02-19T09:22:41.949Z,75
2023-02-19T09:23:36.234Z,75
2023-02-19T09:24:29.173Z,74
2023-02-19T09:25:23.043Z,74
2023-02-19T09:26:27.865Z,74
2023-02-19T09:27:35.043Z,75
2023-02-19T09:28:31.125Z,75
2023-02-19T09:29:22.938Z,73
2023-02-19T09:30:41.794Z,73
2023-02-19T09:32:01.393Z,74
2023-02-19T09:32:25.363Z,74
2023-02-19T09:33:45.061Z,72
2023-02-19T09:34:21.836Z,73
2023-02-19T09:35:34.811Z,73
2023-02-19T09:36:21.184Z,73
2023-02-19T09:37:38.496Z,73
2023-02-19T09:38:36.105Z,72
2023-02-19T09:39:30.656Z,72
2023-02-19T09:40:23.363Z,73
2023-02-19T09:41:36.574Z,73
2023-02-19T09:42:29.927Z,72
2023-02-19T09:43:24.572Z,70
2023-02-19T09:44:22.956Z,70
2023-02-19T09:45:40.722Z,70
2023-02-19T09:46:35.504Z,70
2023-02-19T09:47:26.668Z,70
2023-02-19T09:48:19.540Z,72
2023-02-19T09:49:32.004Z,71
2023-02-19T09:50:27.049Z,71
2023-02-19T09:51:25.201Z,71
2023-02-19T09:52:33.495Z,71
2023-02-19T09:53:34.815Z,71
2023-02-19T09:54:21.419Z,71
2023-02-19T09:55:20.046Z,70
2023-02-19T09:56:31.497Z,70
2023-02-19T09:57:26.686Z,69
2023-02-19T09:58:22.521Z,69
2023-02-19T09:59:23.077Z,68
2023-02-19T10:00:30.236Z,69
2023-02-19T10:01:24.504Z,68
2023-02-19T10:02:21.205Z,67
2023-02-19T10:03:20.985Z,68
2023-02-19T10:04:26.287Z,68
2023-02-19T10:05:23.600Z,66
2023-02-19T10:06:26.495Z,67
2023-02-19T10:07:29.062Z,67
2023-02-19T10:08:28.220Z,66
2023-02-19T10:09:20.654Z,66
2023-02-19T10:10:24.971Z,65
2023-02-19T10:11:26.380Z,66
2023-02-19T10:12:22.390Z,66
2023-02-19T10:13:32.103Z,65
2023-02-19T10:14:24.350Z,65
2023-02-19T10:15:25.079Z,65
2023-02-19T10:16:19.896Z,65
2023-02-19T10:17:33.035Z,64
2023-02-19T10:18:22.727Z,64
2023-02-19T10:19:22.347Z,64
2023-02-19T10:20:36.694Z,64
2023-02-19T10:21:28.130Z,64
2023-02-19T10:22:22.264Z,63
2023-02-19T10:23:38.046Z,64
2023-02-19T10:24:30.118Z,64
2023-02-19T10:25:27.982Z,64
2023-02-19T10:26:22.295Z,64
2023-02-19T10:27:32.120Z,64
2023-02-19T10:28:31.362Z,63
2023-02-19T10:29:25.025Z,63
2023-02-19T10:30:24.106Z,63
2023-02-19T10:31:30.356Z,63
2023-02-19T10:32:26.244Z,63
2023-02-19T10:33:24.027Z,63
2023-02-19T10:34:34.965Z,63
2023-02-19T10:35:28.158Z,63
2023-02-19T10:36:24.230Z,62
2023-02-19T10:37:21.430Z,62
2023-02-19T10:38:29.970Z,61
2023-02-19T10:39:26.767Z,62
2023-02-19T10:40:23.303Z,61
2023-02-19T10:41:31.920Z,61
2023-02-19T10:42:29.820Z,60
2023-02-19T10:43:24.196Z,59
2023-02-19T10:44:21.843Z,59
2023-02-19T10:45:31.890Z,59
2023-02-19T10:46:26.070Z,59
2023-02-19T10:47:23.813Z,59
2023-02-19T10:48:25.733Z,59
2023-02-19T10:49:28.001Z,59
2023-02-19T10:50:25.853Z,59
2023-02-19T10:51:20.264Z,60
2023-02-19T10:52:23.776Z,59
2023-02-19T10:53:26.011Z,59
2023-02-19T10:54:23.875Z,59
2023-02-19T10:55:29.772Z,60
2023-02-19T10:56:23.843Z,60
2023-02-19T10:57:40.417Z,58
2023-02-19T10:58:21.769Z,59
2023-02-19T10:59:22.593Z,59
2023-02-19T11:00:26.166Z,59
2023-02-19T11:01:23.755Z,59
2023-02-19T11:02:34.115Z,58
2023-02-19T11:03:28.353Z,58
2023-02-19T11:04:20.562Z,58
2023-02-19T11:05:20.156Z,58
2023-02-19T11:06:25.053Z,58
2023-02-19T11:07:23.744Z,58
2023-02-19T11:08:22.236Z,58
2023-02-19T11:09:33.283Z,58
2023-02-19T11:10:21.877Z,58
2023-02-19T11:11:39.718Z,58
2023-02-19T11:12:21.029Z,58
2023-02-19T11:13:32.641Z,58
2023-02-19T11:14:28.206Z,58
2023-02-19T11:15:22.818Z,58
2023-02-19T11:16:33.703Z,59
2023-02-19T11:17:23.052Z,59
2023-02-19T11:18:22.415Z,59
2023-02-19T11:19:22.057Z,59
2023-02-19T11:20:31.260Z,59
2023-02-19T11:21:26.904Z,59
2023-02-19T11:22:24.212Z,60
2023-02-19T11:23:33.714Z,58
2023-02-19T11:24:28.265Z,57
2023-02-19T11:25:24.341Z,57
2023-02-19T11:26:26.795Z,58
2023-02-19T11:27:30.160Z,58
2023-02-19T11:28:26.225Z,57
2023-02-19T11:29:23.800Z,57
2023-02-19T11:30:21.177Z,57
2023-02-19T11:31:29.530Z,57
2023-02-19T11:32:24.498Z,58
2023-02-19T11:33:20.405Z,58
2023-02-19T11:34:22.721Z,58
2023-02-19T11:35:26.339Z,58
2023-02-19T11:36:22.265Z,59
2023-02-19T11:37:25.152Z,59
2023-02-19T11:38:28.166Z,59
2023-02-19T11:39:42.804Z,59
2023-02-19T11:40:20.840Z,60
2023-02-19T11:41:31.887Z,59
2023-02-19T11:42:20.577Z,59
2023-02-19T11:43:22.206Z,59
2023-02-19T11:44:33.841Z,59
2023-02-19T11:45:22.354Z,59
2023-02-19T11:46:25.504Z,59
2023-02-19T11:47:20.321Z,58
2023-02-19T11:48:31.301Z,59
2023-02-19T11:49:27.848Z,59
2023-02-19T11:50:22.333Z,59
2023-02-19T11:51:33.135Z,59
2023-02-19T11:52:29.845Z,59
2023-02-19T11:53:25.367Z,59
2023-02-19T11:54:21.808Z,58
2023-02-19T11:55:31.918Z,59
2023-02-19T11:56:28.658Z,59
2023-02-19T11:57:24.006Z,59
2023-02-19T11:58:32.384Z,59
2023-02-19T11:59:30.107Z,59
2023-02-19T12:00:26.021Z,58
2023-02-19T12:01:20.149Z,58
2023-02-19T12:02:40.982Z,58
2023-02-19T12:03:22.668Z,59
2023-02-19T12:04:27.556Z,58
2023-02-19T12:05:32.521Z,57
2023-02-19T12:06:28.435Z,58
2023-02-19T12:07:28.998Z,57
2023-02-19T12:08:20.166Z,58
2023-02-19T12:09:26.764Z,58
2023-02-19T12:10:27.884Z,59
2023-02-19T12:11:23.200Z,58
2023-02-19T12:12:22.986Z,57
2023-02-19T12:13:29.041Z,57
2023-02-19T12:14:24.799Z,58
2023-02-19T12:15:24.296Z,58
2023-02-19T12:16:30.455Z,57
2023-02-19T12:17:28.114Z,57
2023-02-19T12:18:21.865Z,58
2023-02-19T12:19:27.081Z,57
2023-02-19T12:20:21.124Z,56
2023-02-19T12:21:26.783Z,58
2023-02-19T12:22:21.099Z,57
2023-02-19T12:23:23.147Z,59
2023-02-19T12:24:28.940Z,57
2023-02-19T12:25:22.453Z,58
2023-02-19T12:26:32.159Z,56
2023-02-19T12:27:24.561Z,57
2023-02-19T12:28:24.408Z,58
2023-02-19T12:29:20.068Z,56
2023-02-19T12:30:25.275Z,56
2023-02-19T12:31:21.093Z,56
2023-02-19T12:32:22.508Z,56
2023-02-19T12:33:23.190Z,56
2023-02-19T12:34:30.239Z,58
2023-02-19T12:35:24.312Z,58
2023-02-19T12:36:21.214Z,57
2023-02-19T12:37:29.168Z,58
2023-02-19T12:38:22.866Z,58
2023-02-19T12:39:22.386Z,57
2023-02-19T12:40:27.395Z,58
2023-02-19T12:41:28.370Z,58
2023-02-19T12:42:27.347Z,57
2023-02-19T12:43:34.087Z,57
2023-02-19T12:44:20.889Z,57
2023-02-19T12:45:28.127Z,57
2023-02-19T12:46:22.692Z,57
2023-02-19T12:47:28.439Z,57
2023-02-19T12:48:24.461Z,57
2023-02-19T12:49:24.450Z,57
2023-02-19T12:50:22.935Z,58
2023-02-19T12:51:23.535Z,57
2023-02-19T12:52:26.119Z,57
2023-02-19T12:53:23.937Z,57
2023-02-19T12:54:27.780Z,58
2023-02-19T12:55:29.554Z,58
2023-02-19T12:56:24.164Z,58
2023-02-19T12:57:21.687Z,58
2023-02-19T12:58:21.861Z,57
2023-02-19T12:59:19.852Z,57
2023-02-19T13:00:22.280Z,57
2023-02-19T13:01:19.950Z,57
2023-02-19T13:02:21.422Z,57
2023-02-19T13:03:25.706Z,57
2023-02-19T13:04:20.422Z,57
2023-02-19T13:05:24.715Z,58
2023-02-19T13:06:26.246Z,58
2023-02-19T13:07:22.157Z,58
2023-02-19T13:08:24.040Z,58
2023-02-19T13:09:24.379Z,58
2023-02-19T13:10:25.848Z,60
2023-02-19T13:11:20.225Z,59
2023-02-19T13:12:33.853Z,59
2023-02-19T13:13:23.939Z,59
2023-02-19T13:14:23.084Z,60
2023-02-19T13:15:29.841Z,60
2023-02-19T13:16:22.740Z,59
2023-02-19T13:17:25.316Z,60
2023-02-19T13:18:22.905Z,60
2023-02-19T13:19:37.799Z,60
2023-02-19T13:20:23.941Z,60
2023-02-19T13:21:22.549Z,60
2023-02-19T13:22:26.655Z,60
2023-02-19T13:23:24.912Z,60
2023-02-19T13:24:24.627Z,60
2023-02-19T13:25:20.065Z,59
2023-02-19T13:26:30.733Z,59
2023-02-19T13:27:26.445Z,60
2023-02-19T13:28:23.051Z,59
2023-02-19T13:29:33.066Z,59
2023-02-19T13:30:28.974Z,59
2023-02-19T13:31:24.705Z,59
2023-02-19T13:32:20.036Z,59
2023-02-19T13:33:23.466Z,60
2023-02-19T13:34:30.104Z,60
2023-02-19T13:35:22.831Z,60
2023-02-19T13:36:22.891Z,60
2023-02-19T13:37:28.390Z,60
2023-02-19T13:38:26.021Z,60
2023-02-19T13:39:20.758Z,61
2023-02-19T13:40:30.345Z,61
2023-02-19T13:41:26.596Z,60
2023-02-19T13:42:23.392Z,60
2023-02-19T13:43:26.873Z,60
2023-02-19T13:44:20.492Z,60
2023-02-19T13:45:26.561Z,60
2023-02-19T13:46:24.153Z,60
2023-02-19T13:47:46.135Z,60
2023-02-19T13:48:29.039Z,61
2023-02-19T13:49:23.103Z,61
2023-02-19T13:50:25.827Z,61
2023-02-19T13:51:24.324Z,61
2023-02-19T13:52:24.282Z,61
2023-02-19T13:53:20.327Z,61
2023-02-19T13:54:21.321Z,61
2023-02-19T13:55:41.519Z,62
2023-02-19T13:56:24.456Z,61
2023-02-19T13:57:33.425Z,62
2023-02-19T13:58:29.268Z,62
2023-02-19T13:59:24.461Z,61
2023-02-19T14:00:32.515Z,61
2023-02-19T14:01:25.182Z,62
2023-02-19T14:02:27.205Z,62
2023-02-19T14:03:24.237Z,61
2023-02-19T14:04:32.627Z,62
2023-02-19T14:05:30.995Z,62
2023-02-19T14:06:27.846Z,62
2023-02-19T14:07:22.810Z,62
2023-02-19T14:08:30.034Z,62
2023-02-19T14:09:20.953Z,63
2023-02-19T14:10:22.207Z,63
2023-02-19T14:11:43.417Z,62
2023-02-19T14:12:19.686Z,62
2023-02-19T14:13:25.339Z,62
2023-02-19T14:14:20.887Z,62
2023-02-19T14:15:32.648Z,62
2023-02-19T14:16:26.138Z,62
2023-02-19T14:17:22.244Z,62
2023-02-19T14:18:20.439Z,62
2023-02-19T14:19:40.527Z,62
2023-02-19T14:20:24.093Z,62
2023-02-19T14:21:22.183Z,61
2023-02-19T14:22:30.397Z,61
2023-02-19T14:23:29.928Z,62
2023-02-19T14:24:23.497Z,62
2023-02-19T14:25:24.137Z,62
2023-02-19T14:26:43.221Z,62
2023-02-19T14:27:25.227Z,62
2023-02-19T14:28:20.118Z,62
2023-02-19T14:29:22.055Z,62
2023-02-19T14:30:26.564Z,62
2023-02-19T14:31:22.822Z,62
2023-02-19T14:32:27.015Z,62
2023-02-19T14:33:28.537Z,62
2023-02-19T14:34:41.592Z,62